Flight Track Log - Related Links

Times and Time Zones

All times are in EDT time to prevent confusion due to time zone crossing. See the IGO461 flight status page for this flight to view local times or setup timezone preferences in your user account.

Time Position Orientation Groundspeed Altitude Reporting Facility
EDT Latitude Longitude Course Direction KTS MPH feet Rate Location/Type
Thu 01:23:07 AM 18.5380 72.9060 148° Southeast 396 456 18,700  Level FlightAware ADS-B
Thu 01:23:52 AM 18.4770 72.9460 148° Southeast 396 456 18,700 1,440 Level FlightAware ADS-B
Thu 01:24:47 AM 18.3860 73.0050 148° Southeast 403 464 21,100 1,516 Climbing FlightAware ADS-B
Thu 01:25:27 AM 18.3330 73.0400 148° Southeast 403 464 21,100 1,976 Level FlightAware ADS-B
Thu 01:26:12 AM 18.2470 73.0940 149° Southeast 420 483 23,900 2,667 Climbing FlightAware ADS-B
Thu 01:26:57 AM 18.1670 73.1460 148° Southeast 425 489 25,100 1,482 Climbing FlightAware ADS-B
Thu 01:27:37 AM 18.1040 73.1870 148° Southeast 428 493 26,000 884 Climbing FlightAware ADS-B
Thu 01:28:32 AM 18.0080 73.2490 148° Southeast 439 505 26,500 316 Climbing FlightAware ADS-B
Thu 01:29:12 AM 17.9490 73.2880 148° Southeast 439 505 26,500 1,482 Level FlightAware ADS-B
Thu 01:29:57 AM 17.8480 73.3520 149° Southeast 462 532 28,600 1,867 Climbing FlightAware ADS-B
Thu 01:30:42 AM 17.7650 73.4050 149° Southeast 471 542 29,300 1,129 Climbing FlightAware ADS-B
Thu 01:31:22 AM 17.6920 73.4520 148° Southeast 471 542 30,200 1,425 Climbing FlightAware ADS-B
Thu 01:32:02 AM 17.6170 73.5000 149° Southeast 469 540 31,200 1,326 Climbing FlightAware ADS-B
Thu 01:32:57 AM 17.5230 73.5610 148° Southeast 458 527 32,300 695 Climbing FlightAware ADS-B
Thu 01:33:37 AM 17.4620 73.6010 148° Southeast 458 527 32,300 1,694 Level FlightAware ADS-B
Thu 01:34:22 AM 17.3640 73.6620 149° Southeast 447 514 34,700 1,800 Climbing FlightAware ADS-B
Thu 01:35:07 AM 17.2850 73.7130 148° Southeast 447 514 35,000 212 Climbing FlightAware ADS-B
Thu 01:35:47 AM 17.2160 73.7570 149° Southeast 442 509 35,000  Level FlightAware ADS-B
Thu 01:36:27 AM 17.1510 73.7990 148° Southeast 442 509 35,000  Level FlightAware ADS-B
Thu 01:37:07 AM 17.0920 73.8380 148° Southeast 442 509 35,000  Level FlightAware ADS-B
Thu 01:37:47 AM 17.0330 73.8760 148° Southeast 442 509 35,000  Level FlightAware ADS-B
Thu 01:38:37 AM 16.9590 73.9240 148° Southeast 442 509 35,000  Level FlightAware ADS-B
Thu 01:39:17 AM 16.9000 73.9630 148° Southeast 442 509 35,000  Level FlightAware ADS-B
Thu 01:39:52 AM 16.7850 74.0310 150° Southeast 446 513 35,000  Level FlightAware ADS-B
Thu 01:40:37 AM 16.7120 74.0780 148° Southeast 446 513 35,000  Level FlightAware ADS-B
Thu 01:41:17 AM 16.6530 74.1170 148° Southeast 446 513 35,000  Level FlightAware ADS-B
Thu 01:42:07 AM 16.5780 74.1660 148° Southeast 446 513 35,000  Level FlightAware ADS-B
Thu 01:42:47 AM 16.5190 74.2040 148° Southeast 446 513 35,000  Level FlightAware ADS-B
Thu 01:43:27 AM 16.4590 74.2430 148° Southeast 446 513 35,000  Level FlightAware ADS-B
Thu 01:44:07 AM 16.4000 74.2820 148° Southeast 446 513 35,000  Level FlightAware ADS-B
Thu 01:44:47 AM 16.3400 74.3210 148° Southeast 446 513 35,000  Level FlightAware ADS-B
Thu 01:45:37 AM 16.2660 74.3690 148° Southeast 446 513 35,000  Level FlightAware ADS-B
Thu 01:46:17 AM 16.2060 74.4080 148° Southeast 446 513 35,000  Level FlightAware ADS-B
Thu 01:46:57 AM 16.1470 74.4470 148° Southeast 446 513 35,000  Level FlightAware ADS-B
Thu 01:47:37 AM 16.0870 74.4850 149° Southeast 446 513 35,000  Level FlightAware ADS-B
Thu 01:48:17 AM 16.0280 74.5240 148° Southeast 446 513 35,000  Level FlightAware ADS-B
Thu 01:49:07 AM 15.9540 74.5720 148° Southeast 446 513 35,000  Level FlightAware ADS-B
Thu 01:49:47 AM 15.8940 74.6110 148° Southeast 446 513 35,000  Level FlightAware ADS-B
Thu 01:52:00 AM 15.7542 74.7746 132° Southeast  Level Estimated
Thu 01:53:00 AM 15.6911 74.8484 132° Southeast  Level Estimated
Thu 01:54:00 AM 15.6280 74.9221 132° Southeast  Level Estimated
Thu 01:55:00 AM 15.5648 74.9958 132° Southeast  Level Estimated
Thu 01:56:00 AM 15.5016 75.0694 132° Southeast  Level Estimated
Thu 01:57:00 AM 15.4384 75.1429 132° Southeast  Level Estimated
Thu 01:58:00 AM 15.3752 75.2165 132° Southeast  Level Estimated
Thu 01:59:00 AM 15.3120 75.2899 132° Southeast  Level Estimated
Thu 02:00:00 AM 15.2487 75.3634 132° Southeast  Level Estimated
Thu 02:01:00 AM 15.1854 75.4368 132° Southeast  Level Estimated
Thu 02:02:00 AM 15.1221 75.5101 132° Southeast  Level Estimated
Thu 02:03:00 AM 15.0587 75.5834 132° Southeast  Level Estimated
Thu 02:04:00 AM 14.9953 75.6566 132° Southeast  Level Estimated
Thu 02:05:00 AM 14.9319 75.7299 132° Southeast  Level Estimated
Thu 02:06:00 AM 14.8685 75.8030 132° Southeast  Level Estimated
Thu 02:07:00 AM 14.8051 75.8762 132° Southeast  Level Estimated
Thu 02:08:00 AM 14.7416 75.9492 132° Southeast  Level Estimated
Thu 02:09:00 AM 14.6781 76.0223 132° Southeast  Level Estimated
Thu 02:10:00 AM 14.6146 76.0953 132° Southeast  Level Estimated
Thu 02:11:00 AM 14.5511 76.1682 132° Southeast  Level Estimated
Thu 02:12:00 AM 14.4875 76.2411 132° Southeast  Level Estimated
Thu 02:13:00 AM 14.4240 76.3140 132° Southeast  Level Estimated
Thu 02:14:00 AM 14.3604 76.3868 132° Southeast  Level Estimated
Thu 02:15:00 AM 14.2968 76.4596 132° Southeast  Level Estimated
Thu 02:16:00 AM 14.2331 76.5324 132° Southeast  Level Estimated
Thu 02:17:00 AM 14.1694 76.6051 132° Southeast  Level Estimated
Thu 02:18:00 AM 14.1058 76.6778 132° Southeast  Level Estimated
Thu 02:19:00 AM 14.0420 76.7504 132° Southeast  Level Estimated
Thu 02:20:00 AM 13.9783 76.8230 132° Southeast  Level Estimated
Thu 02:21:00 AM 13.9146 76.8955 132° Southeast  Level Estimated
Thu 02:22:00 AM 13.8508 76.9680 132° Southeast  Level Estimated
Thu 02:23:00 AM 13.7870 77.0405 132° Southeast  Level Estimated
Thu 02:24:00 AM 13.7232 77.1129 132° Southeast  Level Estimated
Thu 02:25:00 AM 13.6593 77.1853 132° Southeast  Level Estimated
Thu 02:26:00 AM 13.5955 77.2577 132° Southeast  Level Estimated
Thu 02:27:00 AM 13.5316 77.3300 132° Southeast  Level Estimated
Thu 02:28:00 AM 13.4677 77.4022 132° Southeast  Level Estimated
Thu 02:29:00 AM 13.4038 77.4745 132° Southeast  Level Estimated
Thu 02:30:00 AM 13.3398 77.5467 132° Southeast  Level Estimated
Thu 02:31:00 AM 13.2759 77.6188 132° Southeast  Level Estimated
Thu 02:32:00 AM 13.2119 77.6909 132° Southeast  Level Estimated
Thu 02:33:00 AM 13.1989 77.7056 132° Southeast  Level Estimated
Thu 02:34:00 AM 13.1989 77.7056 256° West  Level Estimated
Thu 02:35:00 AM 13.1989 77.7056 256° West  Level Estimated
Thu 02:36:00 AM 13.1989 77.7056 256° West  Level Estimated

Login

Don't have an account? Register now (free) for customized features, flight alerts, and more!